createdAt,value
2017-06-21T00:01:37.041Z,70.04
2017-06-21T00:04:05.406Z,70.46
2017-06-21T00:06:33.785Z,70.68
2017-06-21T00:09:02.094Z,70.71
2017-06-21T00:11:30.432Z,71.09
2017-06-21T00:13:58.872Z,71.29
2017-06-21T00:16:27.230Z,71.17
2017-06-21T00:18:55.554Z,71.30
2017-06-21T00:21:24.062Z,71.32
2017-06-21T00:23:52.409Z,71.00
2017-06-21T00:26:20.749Z,70.34
2017-06-21T00:28:49.090Z,70.47
2017-06-21T00:31:17.439Z,70.39
2017-06-21T00:33:45.814Z,71.01
2017-06-21T00:36:14.219Z,71.67
2017-06-21T00:38:42.571Z,71.53
2017-06-21T00:41:10.983Z,71.51
2017-06-21T00:43:39.357Z,71.03
2017-06-21T00:46:07.768Z,71.26
2017-06-21T00:48:36.120Z,71.15
2017-06-21T00:51:04.568Z,70.32
2017-06-21T00:53:32.919Z,70.84
2017-06-21T00:56:01.256Z,70.89
2017-06-21T00:58:29.610Z,70.97
2017-06-21T01:00:57.941Z,71.31
2017-06-21T01:03:26.339Z,71.67
2017-06-21T01:05:54.704Z,71.73
2017-06-21T01:08:23.069Z,72.17
2017-06-21T01:10:51.409Z,72.10
2017-06-21T01:13:19.758Z,72.06
2017-06-21T01:15:48.101Z,71.97
2017-06-21T01:18:16.444Z,71.67
2017-06-21T01:20:44.798Z,72.02
2017-06-21T01:23:13.142Z,72.67
2017-06-21T01:25:41.499Z,73.05
2017-06-21T01:28:09.857Z,73.14
2017-06-21T01:30:38.190Z,73.31
2017-06-21T01:33:06.599Z,73.22
2017-06-21T01:35:35.012Z,73.55
2017-06-21T01:38:03.527Z,73.28
2017-06-21T01:40:31.864Z,72.97
2017-06-21T01:43:00.219Z,72.15
2017-06-21T01:45:28.554Z,71.99
2017-06-21T01:47:56.881Z,71.64
2017-06-21T01:50:25.233Z,71.27
2017-06-21T01:52:53.569Z,71.19
2017-06-21T01:55:21.978Z,70.58
2017-06-21T01:57:50.326Z,70.85
2017-06-21T02:00:18.686Z,70.57
2017-06-21T02:02:47.064Z,70.44
2017-06-21T02:05:15.467Z,70.19
2017-06-21T02:07:43.801Z,70.58
2017-06-21T02:10:12.171Z,71.54
2017-06-21T02:12:40.512Z,72.62
2017-06-21T02:15:08.892Z,74.02
2017-06-21T02:17:37.324Z,74.24
2017-06-21T02:20:05.777Z,74.44
2017-06-21T02:22:34.140Z,74.73
2017-06-21T02:25:02.538Z,74.92
2017-06-21T02:27:30.905Z,75.32
2017-06-21T02:29:59.268Z,74.43
2017-06-21T02:32:27.633Z,73.51
2017-06-21T02:34:55.995Z,73.14
2017-06-21T02:37:24.396Z,73.02
2017-06-21T02:39:52.737Z,73.62
2017-06-21T02:42:21.098Z,73.96
2017-06-21T02:44:49.482Z,73.85
2017-06-21T02:47:17.826Z,74.35
2017-06-21T02:49:46.193Z,74.88
2017-06-21T02:52:14.546Z,75.69
2017-06-21T02:54:42.885Z,76.01
2017-06-21T02:57:11.241Z,75.95
2017-06-21T02:59:39.601Z,75.69
2017-06-21T03:02:07.945Z,74.33
2017-06-21T03:04:36.332Z,73.55
2017-06-21T03:07:04.670Z,73.27
2017-06-21T03:09:33.039Z,73.56
2017-06-21T03:12:01.408Z,72.85
2017-06-21T03:14:29.839Z,74.12
2017-06-21T03:16:58.194Z,74.47
2017-06-21T03:19:26.529Z,74.75
2017-06-21T03:21:54.886Z,75.10
2017-06-21T03:24:23.231Z,75.81
2017-06-21T03:26:51.577Z,76.15
2017-06-21T03:29:19.926Z,75.97
2017-06-21T03:31:48.264Z,75.58
2017-06-21T03:34:16.618Z,75.47
2017-06-21T03:36:44.983Z,75.17
2017-06-21T03:39:13.322Z,75.27
2017-06-21T03:41:41.691Z,75.46
2017-06-21T03:44:10.044Z,75.45
2017-06-21T03:46:38.393Z,75.10
2017-06-21T03:49:06.738Z,75.96
2017-06-21T03:51:35.077Z,76.36
2017-06-21T03:54:03.453Z,76.33
2017-06-21T03:56:32.879Z,76.12
2017-06-21T03:59:01.279Z,76.04
2017-06-21T04:01:29.616Z,76.05
2017-06-21T04:04:00.597Z,75.92
2017-06-21T04:06:29.363Z,75.99
2017-06-21T04:08:57.777Z,75.86
2017-06-21T04:11:26.119Z,75.81
2017-06-21T04:13:54.458Z,75.72
2017-06-21T04:16:22.900Z,75.12
2017-06-21T04:18:51.236Z,74.81
2017-06-21T04:21:19.585Z,74.32
2017-06-21T04:23:48.042Z,73.99
2017-06-21T04:26:16.382Z,73.08
2017-06-21T04:28:44.768Z,72.75
2017-06-21T04:31:13.113Z,72.09
2017-06-21T04:33:41.465Z,71.72
2017-06-21T04:36:09.833Z,71.67
2017-06-21T04:38:38.184Z,71.94
2017-06-21T04:41:06.546Z,73.02
2017-06-21T04:43:34.925Z,73.65
2017-06-21T04:46:03.272Z,73.05
2017-06-21T04:48:31.614Z,72.25
2017-06-21T04:50:59.993Z,71.41
2017-06-21T04:53:28.330Z,70.45
2017-06-21T04:55:56.688Z,69.54
2017-06-21T04:58:25.036Z,68.03
2017-06-21T05:00:53.404Z,67.18
2017-06-21T05:03:21.758Z,66.84
2017-06-21T05:05:50.101Z,66.51
2017-06-21T05:08:18.469Z,65.45
2017-06-21T05:10:46.850Z,64.96
2017-06-21T05:13:15.173Z,65.01
2017-06-21T05:15:43.525Z,64.96
2017-06-21T05:18:11.874Z,65.13
2017-06-21T05:20:40.217Z,65.23
2017-06-21T05:23:08.593Z,64.49
2017-06-21T05:25:36.986Z,64.49
2017-06-21T05:28:05.321Z,64.14
2017-06-21T05:30:33.757Z,62.98
2017-06-21T05:33:02.121Z,62.27
2017-06-21T05:35:30.466Z,61.94
2017-06-21T05:37:58.829Z,61.73
2017-06-21T05:40:27.185Z,61.25
2017-06-21T05:42:55.564Z,61.24
2017-06-21T05:45:23.951Z,60.78
2017-06-21T05:47:52.286Z,60.96
2017-06-21T05:50:20.694Z,60.90
2017-06-21T05:52:49.010Z,60.21
2017-06-21T05:55:17.376Z,59.21
2017-06-21T05:57:45.729Z,58.71
2017-06-21T06:00:14.113Z,58.31
2017-06-21T06:02:42.469Z,58.56
2017-06-21T06:05:10.878Z,58.16
2017-06-21T06:07:39.201Z,57.58
2017-06-21T06:10:07.599Z,58.01
2017-06-21T06:12:35.953Z,58.57
2017-06-21T06:15:04.324Z,57.87
2017-06-21T06:17:33.357Z,58.15
2017-06-21T06:20:01.726Z,57.66
2017-06-21T06:22:30.100Z,57.32
2017-06-21T06:24:58.529Z,57.26
2017-06-21T06:27:26.870Z,56.98
2017-06-21T06:29:55.208Z,56.93
2017-06-21T06:32:23.549Z,56.43
2017-06-21T06:34:51.928Z,56.60
2017-06-21T06:37:20.268Z,56.26
2017-06-21T06:39:48.662Z,55.69
2017-06-21T06:42:17.009Z,55.43
2017-06-21T06:44:45.357Z,56.08
2017-06-21T06:47:13.742Z,55.93
2017-06-21T06:49:42.157Z,54.68
2017-06-21T06:52:10.521Z,53.52
2017-06-21T06:54:38.925Z,52.29
2017-06-21T06:57:07.286Z,51.58
2017-06-21T06:59:35.646Z,51.94
2017-06-21T07:02:04.006Z,52.03
2017-06-21T07:04:32.361Z,52.05
2017-06-21T07:07:00.741Z,51.47
2017-06-21T07:09:29.138Z,51.47
2017-06-21T07:11:57.478Z,51.49
2017-06-21T07:14:25.821Z,49.98
2017-06-21T07:16:54.193Z,49.87
2017-06-21T07:19:22.577Z,50.17
2017-06-21T07:21:50.902Z,50.27
2017-06-21T07:24:19.253Z,50.33
2017-06-21T07:26:47.593Z,50.36
2017-06-21T07:29:15.933Z,49.22
2017-06-21T07:31:44.277Z,49.13
2017-06-21T07:34:12.633Z,48.65
2017-06-21T07:36:40.973Z,47.26
2017-06-21T07:39:09.348Z,47.58
2017-06-21T07:41:37.705Z,46.76
2017-06-21T07:44:06.095Z,46.29
2017-06-21T07:46:34.442Z,45.96
2017-06-21T07:49:02.823Z,45.51
2017-06-21T07:51:31.257Z,44.87
2017-06-21T07:53:59.609Z,45.28
2017-06-21T07:56:27.950Z,46.55
2017-06-21T07:58:56.349Z,44.88
2017-06-21T08:01:24.707Z,45.35
2017-06-21T08:03:53.086Z,45.16
2017-06-21T08:06:21.443Z,44.28
2017-06-21T08:08:49.798Z,44.73
2017-06-21T08:11:18.137Z,43.16
2017-06-21T08:13:46.494Z,43.97
2017-06-21T08:16:14.858Z,44.26
2017-06-21T08:18:43.201Z,43.94
2017-06-21T08:21:11.564Z,43.76
2017-06-21T08:23:39.904Z,43.57
2017-06-21T08:26:08.255Z,42.66
2017-06-21T08:28:36.596Z,42.07
2017-06-21T08:31:04.947Z,41.34
2017-06-21T08:33:33.287Z,41.66
2017-06-21T08:36:01.633Z,41.36
2017-06-21T08:38:29.982Z,39.38
2017-06-21T08:40:58.425Z,40.89
2017-06-21T08:43:26.765Z,41.41
2017-06-21T08:45:55.133Z,40.05
2017-06-21T08:48:23.481Z,39.50
2017-06-21T08:50:51.829Z,39.87
2017-06-21T08:53:20.176Z,40.78
2017-06-21T08:55:48.529Z,39.36
2017-06-21T08:58:16.896Z,38.14
2017-06-21T09:00:45.241Z,39.02
2017-06-21T09:03:13.587Z,38.51
2017-06-21T09:05:41.937Z,38.74
2017-06-21T09:08:10.366Z,37.14
2017-06-21T09:10:38.709Z,36.06
2017-06-21T09:13:07.049Z,35.82
2017-06-21T09:15:35.401Z,34.51
2017-06-21T09:18:03.760Z,34.55
2017-06-21T09:20:32.137Z,34.31
2017-06-21T09:23:00.482Z,36.50
2017-06-21T09:25:28.867Z,36.27
2017-06-21T09:27:57.213Z,36.13
2017-06-21T09:30:25.582Z,34.88
2017-06-21T09:32:54.010Z,34.42
2017-06-21T09:35:22.486Z,34.52
2017-06-21T09:37:50.813Z,35.01
2017-06-21T09:40:19.759Z,34.99
2017-06-21T09:42:48.093Z,34.32
2017-06-21T09:45:16.484Z,33.86
2017-06-21T09:47:44.868Z,34.52
2017-06-21T09:50:13.367Z,33.28
2017-06-21T09:52:41.708Z,33.95
2017-06-21T09:55:10.077Z,33.63
2017-06-21T09:57:38.417Z,34.17
2017-06-21T10:00:06.803Z,33.00
2017-06-21T10:02:35.169Z,32.86
2017-06-21T10:05:03.696Z,32.37
2017-06-21T10:07:32.030Z,34.83
2017-06-21T10:10:00.386Z,35.42
2017-06-21T10:12:28.713Z,34.34
2017-06-21T10:14:57.081Z,34.67
2017-06-21T10:17:25.420Z,33.54
2017-06-21T10:19:53.796Z,33.36
2017-06-21T10:22:22.143Z,33.61
2017-06-21T10:24:50.488Z,32.88
2017-06-21T10:27:19.168Z,33.21
2017-06-21T10:29:47.508Z,32.29
2017-06-21T10:32:15.854Z,31.92
2017-06-21T10:34:44.198Z,31.75
2017-06-21T10:37:12.546Z,33.07
2017-06-21T10:39:40.922Z,31.46
2017-06-21T10:42:09.269Z,29.65
2017-06-21T10:44:37.604Z,29.56
2017-06-21T10:47:05.949Z,31.39
2017-06-21T10:49:34.277Z,31.05
2017-06-21T10:52:02.612Z,31.33
2017-06-21T10:54:30.950Z,30.60
2017-06-21T10:56:59.300Z,31.58
2017-06-21T10:59:27.652Z,30.43
2017-06-21T11:01:55.977Z,30.76
2017-06-21T11:04:24.305Z,30.78
2017-06-21T11:06:52.650Z,30.58
2017-06-21T11:09:20.993Z,29.91
2017-06-21T11:11:49.338Z,30.22
2017-06-21T11:14:17.688Z,31.15
2017-06-21T11:16:46.067Z,32.58
2017-06-21T11:19:14.426Z,31.97
2017-06-21T11:21:42.755Z,31.99
2017-06-21T11:24:11.124Z,32.03
2017-06-21T11:26:39.439Z,32.23
2017-06-21T11:29:07.792Z,31.62
2017-06-21T11:31:36.349Z,32.03
2017-06-21T11:34:04.694Z,32.48
2017-06-21T11:36:33.033Z,31.68
2017-06-21T11:39:01.433Z,30.22
2017-06-21T11:41:29.785Z,30.55
2017-06-21T11:43:58.124Z,29.97
2017-06-21T11:46:26.579Z,30.19
2017-06-21T11:48:54.897Z,27.95
2017-06-21T11:51:23.246Z,28.58
2017-06-21T11:53:51.716Z,28.02
2017-06-21T11:56:20.070Z,27.35
2017-06-21T11:58:48.391Z,27.56
2017-06-21T12:01:16.724Z,28.46
2017-06-21T12:03:45.057Z,28.82
2017-06-21T12:06:13.411Z,29.76
2017-06-21T12:08:41.801Z,31.25
2017-06-21T12:11:10.117Z,31.93
2017-06-21T12:13:38.493Z,31.77
2017-06-21T12:16:06.830Z,31.39
2017-06-21T12:18:35.388Z,31.32
2017-06-21T12:21:03.735Z,30.78
2017-06-21T12:23:32.090Z,31.52
2017-06-21T12:26:00.422Z,31.67
2017-06-21T12:28:28.765Z,32.14
2017-06-21T12:30:57.108Z,32.44
2017-06-21T12:33:25.493Z,32.12
2017-06-21T12:35:53.827Z,32.23
2017-06-21T12:38:22.201Z,32.96
2017-06-21T12:40:50.543Z,33.30
2017-06-21T12:43:18.869Z,33.86
2017-06-21T12:45:47.201Z,39.01
2017-06-21T12:48:15.567Z,42.11
2017-06-21T12:50:43.893Z,45.11
2017-06-21T12:53:12.221Z,47.22
2017-06-21T12:55:40.561Z,49.27
2017-06-21T12:58:08.914Z,51.86
2017-06-21T13:00:37.259Z,54.81
2017-06-21T13:03:05.636Z,55.98
2017-06-21T13:05:33.994Z,52.64
2017-06-21T13:08:02.355Z,50.51
2017-06-21T13:10:30.684Z,52.39
2017-06-21T13:12:59.022Z,53.90
2017-06-21T13:15:27.388Z,56.05
2017-06-21T13:17:55.708Z,58.30
2017-06-21T13:20:24.079Z,60.97
2017-06-21T13:22:52.448Z,62.99
2017-06-21T13:25:20.838Z,63.89
2017-06-21T13:27:49.162Z,63.50
2017-06-21T13:30:17.567Z,62.97
2017-06-21T13:32:45.886Z,63.04
2017-06-21T13:35:14.282Z,62.84
2017-06-21T13:37:42.628Z,64.44
2017-06-21T13:40:11.058Z,63.30
2017-06-21T13:42:39.400Z,65.18
2017-06-21T13:45:07.789Z,63.47
2017-06-21T13:47:36.176Z,62.01
2017-06-21T13:50:04.564Z,60.34
2017-06-21T13:52:32.975Z,58.83
2017-06-21T13:55:01.343Z,57.05
2017-06-21T13:57:29.671Z,55.41
2017-06-21T13:59:58.013Z,53.63
2017-06-21T14:02:26.417Z,49.46
2017-06-21T14:04:54.764Z,49.13
2017-06-21T14:07:23.113Z,51.86
2017-06-21T14:09:51.460Z,51.48
2017-06-21T14:12:19.824Z,49.80
2017-06-21T14:14:48.160Z,50.11
2017-06-21T14:17:16.497Z,52.73
2017-06-21T14:19:44.862Z,52.50
2017-06-21T14:22:13.257Z,51.13
2017-06-21T14:24:41.594Z,50.73
2017-06-21T14:27:10.198Z,48.29
2017-06-21T14:29:38.535Z,45.52
2017-06-21T14:32:06.858Z,41.78
2017-06-21T14:34:35.230Z,41.49
2017-06-21T14:37:03.603Z,41.77
2017-06-21T14:39:31.929Z,45.50
2017-06-21T14:42:00.273Z,42.55
2017-06-21T14:44:28.605Z,40.38
2017-06-21T14:46:56.934Z,40.25
2017-06-21T14:49:25.352Z,35.72
2017-06-21T14:51:53.682Z,34.95
2017-06-21T14:54:22.011Z,34.28
2017-06-21T14:56:50.336Z,32.74
2017-06-21T14:59:18.734Z,33.00
2017-06-21T15:01:47.057Z,33.29
2017-06-21T15:04:15.406Z,32.51
2017-06-21T15:06:43.757Z,31.32
2017-06-21T15:09:12.406Z,29.56
2017-06-21T15:11:40.914Z,29.34
2017-06-21T15:14:09.245Z,31.05
2017-06-21T15:16:37.671Z,31.88
2017-06-21T15:19:06.884Z,31.96
2017-06-21T15:21:35.249Z,33.14
2017-06-21T15:24:03.600Z,40.83
2017-06-21T15:26:31.946Z,41.17
2017-06-21T15:29:00.285Z,39.20
2017-06-21T15:31:28.713Z,41.12
2017-06-21T15:33:57.078Z,44.32
2017-06-21T15:36:25.472Z,45.62
2017-06-21T15:38:53.874Z,48.18
2017-06-21T15:41:22.237Z,47.75
2017-06-21T15:43:50.570Z,43.64
2017-06-21T15:46:19.073Z,44.27
2017-06-21T15:48:47.505Z,43.61
2017-06-21T15:51:15.862Z,41.86
2017-06-21T15:53:44.221Z,37.78
2017-06-21T15:56:12.602Z,37.85
2017-06-21T15:58:40.949Z,36.77
2017-06-21T16:01:09.292Z,38.02
2017-06-21T16:03:37.800Z,38.47
2017-06-21T16:06:06.206Z,39.80
2017-06-21T16:08:34.553Z,40.28
2017-06-21T16:11:02.895Z,41.79
2017-06-21T16:13:31.320Z,42.31
2017-06-21T16:15:59.711Z,41.61
2017-06-21T16:18:28.070Z,41.57
2017-06-21T16:20:56.381Z,42.20
2017-06-21T16:23:24.722Z,42.94
2017-06-21T16:25:53.079Z,42.68
2017-06-21T16:28:21.435Z,43.16
2017-06-21T16:30:49.741Z,43.19
2017-06-21T16:33:18.113Z,42.69
2017-06-21T16:35:46.443Z,43.91
2017-06-21T16:38:14.777Z,44.95
2017-06-21T16:40:43.109Z,45.41
2017-06-21T16:43:11.455Z,46.69
2017-06-21T16:45:39.806Z,47.60
2017-06-21T16:48:08.156Z,49.11
2017-06-21T16:50:36.543Z,51.28
2017-06-21T16:53:04.890Z,54.53
2017-06-21T16:55:33.250Z,55.85
2017-06-21T16:58:01.587Z,56.20
2017-06-21T17:00:29.945Z,53.90
2017-06-21T17:02:58.284Z,49.43
2017-06-21T17:05:26.659Z,50.91
2017-06-21T17:07:54.993Z,52.31
2017-06-21T17:10:23.385Z,53.02
2017-06-21T17:12:51.742Z,53.93
2017-06-21T17:15:20.140Z,48.17
2017-06-21T17:17:48.519Z,45.14
2017-06-21T17:20:16.919Z,42.08
2017-06-21T17:22:45.278Z,39.12
2017-06-21T17:25:13.705Z,39.78
2017-06-21T17:27:42.037Z,39.32
2017-06-21T17:30:10.498Z,37.34
2017-06-21T17:32:38.868Z,37.83
2017-06-21T17:35:07.211Z,36.28
2017-06-21T17:37:35.716Z,33.35
2017-06-21T17:40:04.244Z,32.97
2017-06-21T17:42:32.593Z,32.18
2017-06-21T17:45:00.934Z,33.36
2017-06-21T17:47:29.424Z,32.18
2017-06-21T17:49:57.850Z,32.15
2017-06-21T17:52:26.231Z,32.31
2017-06-21T17:54:55.141Z,32.06
2017-06-21T17:57:23.489Z,33.06
2017-06-21T17:59:51.821Z,35.34
2017-06-21T18:02:20.194Z,33.67
2017-06-21T18:04:48.512Z,33.50
2017-06-21T18:07:16.840Z,36.74
2017-06-21T18:09:45.181Z,40.77
2017-06-21T18:12:13.558Z,41.03
2017-06-21T18:14:42.005Z,42.52
2017-06-21T18:17:10.480Z,43.81
2017-06-21T18:19:38.813Z,45.01
2017-06-21T18:22:07.141Z,47.04
2017-06-21T18:24:35.514Z,50.67
2017-06-21T18:27:03.879Z,52.20
2017-06-21T18:29:32.212Z,54.24
2017-06-21T18:32:00.554Z,56.68
2017-06-21T18:34:29.250Z,56.52
2017-06-21T18:36:57.589Z,58.04
2017-06-21T18:39:25.940Z,58.91
2017-06-21T18:41:54.373Z,58.38
2017-06-21T18:44:22.758Z,58.66
2017-06-21T18:46:51.100Z,59.73
2017-06-21T18:49:19.453Z,61.61
2017-06-21T18:51:47.990Z,63.82
2017-06-21T18:54:16.360Z,65.42
2017-06-21T18:56:44.721Z,66.12
2017-06-21T18:59:13.085Z,67.26
2017-06-21T19:01:42.546Z,68.10
2017-06-21T19:04:11.752Z,67.40
2017-06-21T19:06:40.099Z,67.97
2017-06-21T19:09:08.441Z,67.61
2017-06-21T19:11:36.803Z,67.76
2017-06-21T19:14:05.162Z,67.33
2017-06-21T19:16:33.529Z,64.88
2017-06-21T19:19:01.912Z,63.30
2017-06-21T19:21:30.352Z,62.18
2017-06-21T19:23:58.740Z,62.08
2017-06-21T19:26:27.131Z,62.00
2017-06-21T19:28:55.457Z,62.37
2017-06-21T19:31:23.809Z,64.05
2017-06-21T19:33:52.274Z,64.86
2017-06-21T19:36:20.610Z,65.20
2017-06-21T19:38:48.976Z,65.77
2017-06-21T19:41:17.342Z,65.52
2017-06-21T19:43:45.754Z,63.54
2017-06-21T19:46:14.105Z,65.06
2017-06-21T19:48:42.488Z,65.03
2017-06-21T19:51:10.856Z,65.05
2017-06-21T19:53:39.336Z,65.33
2017-06-21T19:56:07.721Z,65.29
2017-06-21T19:58:36.074Z,65.43
2017-06-21T20:01:04.523Z,65.48
2017-06-21T20:03:32.882Z,65.83
2017-06-21T20:06:01.243Z,65.92
2017-06-21T20:08:29.677Z,65.19
2017-06-21T20:10:58.029Z,64.78
2017-06-21T20:13:26.373Z,64.60
2017-06-21T20:15:54.718Z,64.86
2017-06-21T20:18:23.077Z,64.69
2017-06-21T20:20:51.434Z,65.28
2017-06-21T20:23:19.847Z,65.59
2017-06-21T20:25:48.187Z,65.73
2017-06-21T20:28:16.595Z,64.95
2017-06-21T20:30:44.925Z,64.66
2017-06-21T20:33:13.294Z,64.93
2017-06-21T20:35:41.664Z,65.63
2017-06-21T20:38:10.029Z,65.57
2017-06-21T20:40:39.249Z,65.67
2017-06-21T20:43:07.610Z,67.62
2017-06-21T20:45:36.053Z,67.14
2017-06-21T20:48:04.416Z,67.24
2017-06-21T20:50:32.781Z,68.05
2017-06-21T20:53:01.215Z,68.94
2017-06-21T20:55:29.586Z,69.52
2017-06-21T20:57:57.934Z,68.71
2017-06-21T21:00:26.298Z,70.03
2017-06-21T21:02:54.638Z,71.76
2017-06-21T21:05:23.119Z,72.00
2017-06-21T21:07:51.465Z,71.82
2017-06-21T21:10:19.852Z,72.13
2017-06-21T21:12:48.185Z,73.27
2017-06-21T21:15:16.585Z,72.08
2017-06-21T21:17:44.925Z,70.01
2017-06-21T21:20:13.330Z,67.86
2017-06-21T21:22:41.677Z,69.91
2017-06-21T21:25:10.070Z,70.58
2017-06-21T21:27:38.408Z,70.08
2017-06-21T21:30:06.805Z,69.38
2017-06-21T21:32:35.145Z,69.02
2017-06-21T21:35:03.545Z,69.66
2017-06-21T21:37:31.902Z,70.54
2017-06-21T21:40:00.268Z,70.64
2017-06-21T21:42:28.698Z,70.60
2017-06-21T21:44:57.070Z,71.52
2017-06-21T21:47:26.534Z,71.66
2017-06-21T21:49:54.914Z,71.66
2017-06-21T21:52:23.269Z,71.75
2017-06-21T21:54:52.712Z,71.88
2017-06-21T21:57:21.085Z,72.03
2017-06-21T21:59:49.448Z,73.30
2017-06-21T22:02:17.802Z,71.55
2017-06-21T22:04:46.178Z,70.32
2017-06-21T22:07:14.533Z,69.66
2017-06-21T22:09:42.897Z,69.67
2017-06-21T22:12:11.239Z,70.16
2017-06-21T22:14:39.593Z,71.02
2017-06-21T22:17:08.634Z,71.47
2017-06-21T22:19:36.973Z,71.74
2017-06-21T22:22:05.357Z,72.59
2017-06-21T22:24:33.703Z,72.89
2017-06-21T22:27:02.069Z,73.71
2017-06-21T22:29:30.421Z,74.38
2017-06-21T22:31:58.772Z,75.46
2017-06-21T22:34:27.133Z,76.12
2017-06-21T22:36:55.497Z,76.79
2017-06-21T22:39:23.829Z,77.25
2017-06-21T22:41:52.189Z,77.20
2017-06-21T22:44:20.540Z,77.19
2017-06-21T22:46:48.919Z,76.76
2017-06-21T22:49:17.388Z,76.59
2017-06-21T22:51:45.733Z,77.04
2017-06-21T22:54:14.097Z,77.72
2017-06-21T22:56:42.445Z,77.86
2017-06-21T22:59:10.818Z,78.12
2017-06-21T23:01:39.162Z,78.68
2017-06-21T23:04:07.521Z,77.75
2017-06-21T23:06:35.877Z,77.04
2017-06-21T23:09:04.221Z,76.72
2017-06-21T23:11:32.566Z,76.55
2017-06-21T23:14:00.925Z,76.01
2017-06-21T23:16:29.463Z,76.94
2017-06-21T23:18:57.790Z,77.80
2017-06-21T23:21:26.184Z,78.01
2017-06-21T23:23:54.519Z,78.20
2017-06-21T23:26:22.862Z,78.47
2017-06-21T23:28:51.211Z,78.68
2017-06-21T23:31:19.570Z,78.75
2017-06-21T23:33:47.962Z,79.09
2017-06-21T23:36:16.317Z,79.38
2017-06-21T23:38:44.676Z,79.60
2017-06-21T23:41:13.023Z,80.19
2017-06-21T23:43:41.370Z,80.45
2017-06-21T23:46:09.716Z,80.36
2017-06-21T23:48:38.059Z,80.09
2017-06-21T23:51:06.406Z,80.08
2017-06-21T23:53:34.758Z,79.97
2017-06-21T23:56:03.114Z,79.91
2017-06-21T23:58:31.465Z,79.70
